Time;durP1;ratioP1;P1;durP2;ratioP2;P2;SDS_P1;SDS_P2;PMS_P1;PMS_P2;Temp;Humidity;BMP_temperature;BMP_pressure;BME280_temperature;BME280_humidity;BME280_pressure;Samples;Min_cycle;Max_cycle;Signal;HPM_P1;HPM_P2
2021/12/30 00:03:02;;;;;;;;;;;;;;;0.36;100.00;100293.59;5597391;31;33253;-83
2021/12/30 00:06:08;;;;;;;;;;;;;;;0.37;100.00;100300.47;5596175;31;33604;-83
2021/12/30 00:09:12;;;;;;;;;;;;;;;0.39;100.00;100301.25;5596475;31;33838;-83
2021/12/30 00:12:15;;;;;;;;;;;;;;;0.45;100.00;100311.34;5597329;31;33779;-83
2021/12/30 00:15:18;;;;;;;;;;;;;;;0.45;100.00;100319.97;5595667;31;33808;-83
2021/12/30 00:18:21;;;;;;;;;;;;;;;0.45;100.00;100308.75;5597123;31;33516;-83
2021/12/30 00:21:26;;;;;;;;;;;;;;;0.54;100.00;100313.47;5597303;31;33669;-83
2021/12/30 00:24:32;;;;;;;;;;;;;;;0.49;100.00;100318.09;5596079;31;34383;-83
2021/12/30 00:27:34;;;;;;;;;;;;;;;0.41;100.00;100322.81;5596128;31;33255;-83
2021/12/30 00:30:37;;;;;;;;;;;;;;;0.42;100.00;100334.91;5595954;31;33495;-83
2021/12/30 00:33:39;;;;;;;;;;;;;;;0.35;100.00;100341.34;5595952;31;34034;-83
2021/12/30 00:36:49;;;;;;;;;;;;;;;0.36;100.00;100346.47;5595751;31;33410;-83
2021/12/30 00:39:54;;;;;;;;;;;;;;;0.36;100.00;100345.63;5595633;31;33349;-83
2021/12/30 00:42:57;;;;;;;;;;;;;;;0.36;100.00;100350.84;5595633;31;33858;-84
2021/12/30 00:46:03;;;;;;;;;;;;;;;0.34;100.00;100353.50;5597052;31;33898;-83
2021/12/30 00:49:06;;;;;;;;;;;;;;;0.38;100.00;100349.00;5596982;31;33267;-83
2021/12/30 00:52:11;;;;;;;;;;;;;;;0.40;100.00;100357.56;5595434;31;34174;-83
2021/12/30 00:55:14;;;;;;;;;;;;;;;0.41;100.00;100364.47;5596916;31;33590;-83
2021/12/30 00:58:17;;;;;;;;;;;;;;;0.40;100.00;100374.03;5596068;31;33492;-83
2021/12/30 01:01:19;;;;;;;;;;;;;;;0.39;100.00;100371.53;5598178;31;33675;-83
2021/12/30 01:04:23;;;;;;;;;;;;;;;0.49;100.00;100383.19;5597548;31;34090;-83
2021/12/30 01:07:26;;;;;;;;;;;;;;;0.38;100.00;100381.06;5600149;31;33516;-82
2021/12/30 01:10:29;;;;;;;;;;;;;;;0.36;100.00;100382.06;5595324;31;33823;-81
2021/12/30 01:13:40;;;;;;;;;;;;;;;0.36;100.00;100379.47;5595399;31;34620;-81
2021/12/30 01:16:45;;;;;;;;;;;;;;;0.36;100.00;100382.06;5597202;31;34072;-81
2021/12/30 01:19:51;;;;;;;;;;;;;;;0.35;100.00;100375.19;5595618;31;35050;-81
2021/12/30 01:22:53;;;;;;;;;;;;;;;0.38;100.00;100380.25;5595444;31;33710;-81
2021/12/30 01:25:56;;;;;;;;;;;;;;;0.41;100.00;100390.50;5595270;31;33377;-81
2021/12/30 01:29:01;;;;;;;;;;;;;;;0.44;100.00;100388.59;5595370;31;33384;-81
2021/12/30 01:32:06;;;;;;;;;;;;;;;0.48;100.00;100391.91;5595720;31;33737;-81
2021/12/30 01:35:11;;;;;;;;;;;;;;;0.48;100.00;100389.28;5595028;31;33061;-81
2021/12/30 01:38:16;;;;;;;;;;;;;;;0.41;100.00;100391.34;5595958;31;33652;-81
2021/12/30 01:41:19;;;;;;;;;;;;;;;0.38;100.00;100406.28;5593955;31;34142;-81
2021/12/30 01:44:22;;;;;;;;;;;;;;;0.49;100.00;100409.22;5595064;31;34013;-81
2021/12/30 01:47:25;;;;;;;;;;;;;;;0.39;100.00;100411.41;5595074;31;33838;-83
2021/12/30 01:50:28;;;;;;;;;;;;;;;0.39;100.00;100407.97;5596805;31;33472;-83
2021/12/30 01:53:30;;;;;;;;;;;;;;;0.35;100.00;100414.22;5595182;31;33572;-82
2021/12/30 01:56:35;;;;;;;;;;;;;;;0.29;100.00;100403.19;5596421;31;34096;-81
2021/12/30 01:59:38;;;;;;;;;;;;;;;0.40;100.00;100413.09;5595408;31;33602;-82
2021/12/30 02:02:41;;;;;;;;;;;;;;;0.29;100.00;100403.19;5595307;31;33530;-81
2021/12/30 02:05:45;;;;;;;;;;;;;;;0.33;100.00;100406.50;5594588;31;34140;-81
2021/12/30 02:08:50;;;;;;;;;;;;;;;0.22;100.00;100407.00;5596071;31;33751;-81
2021/12/30 02:11:54;;;;;;;;;;;;;;;0.28;100.00;100414.50;5595808;31;33344;-81
2021/12/30 02:14:57;;;;;;;;;;;;;;;0.35;100.00;100411.62;5595678;31;33583;-81
2021/12/30 02:18:01;;;;;;;;;;;;;;;0.40;100.00;100414.81;5595922;31;33783;-81
2021/12/30 02:21:07;;;;;;;;;;;;;;;0.29;100.00;100413.59;5596577;31;33523;-81
2021/12/30 02:24:10;;;;;;;;;;;;;;;0.23;100.00;100413.87;5594428;31;34170;-81
2021/12/30 02:27:12;;;;;;;;;;;;;;;0.25;100.00;100409.47;5594446;31;33993;-81
2021/12/30 02:30:15;;;;;;;;;;;;;;;0.22;100.00;100416.56;5595041;31;33608;-83
2021/12/30 02:33:18;;;;;;;;;;;;;;;0.22;100.00;100417.41;5594397;31;34346;-82
2021/12/30 02:36:23;;;;;;;;;;;;;;;0.18;100.00;100410.66;5594205;31;33848;-82
2021/12/30 02:39:26;;;;;;;;;;;;;;;0.21;100.00;100405.31;5594529;31;33276;-82
2021/12/30 02:42:29;;;;;;;;;;;;;;;0.24;100.00;100414.72;5596038;31;34055;-81
2021/12/30 02:45:31;;;;;;;;;;;;;;;0.12;100.00;100416.16;5595800;31;34170;-81
2021/12/30 02:48:41;;;;;;;;;;;;;;;0.18;100.00;100405.44;5593829;31;33399;-81
2021/12/30 02:51:43;;;;;;;;;;;;;;;0.26;100.00;100400.75;5594973;31;33724;-81
2021/12/30 02:54:46;;;;;;;;;;;;;;;0.27;100.00;100396.37;5596883;31;33837;-81
2021/12/30 02:57:49;;;;;;;;;;;;;;;0.21;100.00;100394.06;5596501;31;33724;-82
2021/12/30 03:00:58;;;;;;;;;;;;;;;0.16;100.00;100402.09;5596979;31;34191;-81
2021/12/30 03:04:03;;;;;;;;;;;;;;;0.18;100.00;100404.59;5596744;31;33992;-81
2021/12/30 03:07:05;;;;;;;;;;;;;;;0.16;100.00;100409.91;5597107;31;33831;-82
2021/12/30 03:10:13;;;;;;;;;;;;;;;0.15;100.00;100414.25;5596603;31;34189;-81
2021/12/30 03:13:25;;;;;;;;;;;;;;;0.13;100.00;100412.63;5596328;31;34178;-81
2021/12/30 03:16:31;;;;;;;;;;;;;;;0.16;100.00;100407.28;5596309;31;33725;-81
2021/12/30 03:19:35;;;;;;;;;;;;;;;0.11;100.00;100404.06;5598228;31;33078;-81
2021/12/30 03:22:38;;;;;;;;;;;;;;;0.06;100.00;100412.06;5597731;31;33978;-81
2021/12/30 03:25:43;;;;;;;;;;;;;;;0.11;100.00;100419.66;5596483;31;32966;-81
2021/12/30 03:28:46;;;;;;;;;;;;;;;0.11;100.00;100417.88;5597455;31;33619;-81
2021/12/30 03:31:52;;;;;;;;;;;;;;;0.19;100.00;100424.50;5597072;31;33607;-81
2021/12/30 03:34:54;;;;;;;;;;;;;;;0.25;100.00;100422.47;5597086;31;33907;-81
2021/12/30 03:37:57;;;;;;;;;;;;;;;0.21;100.00;100431.31;5598725;31;33914;-81
2021/12/30 03:41:05;;;;;;;;;;;;;;;0.18;100.00;100430.63;5597915;31;34847;-81
2021/12/30 03:44:13;;;;;;;;;;;;;;;0.20;100.00;100442.66;5597626;31;33651;-81
2021/12/30 03:47:17;;;;;;;;;;;;;;;0.30;100.00;100441.31;5596994;31;33990;-81
2021/12/30 03:50:24;;;;;;;;;;;;;;;0.28;100.00;100453.53;5602332;31;34882;-83
2021/12/30 03:53:29;;;;;;;;;;;;;;;0.30;100.00;100459.50;5597906;31;33721;-82
2021/12/30 03:56:32;;;;;;;;;;;;;;;0.32;100.00;100446.44;5597019;31;33989;-82
2021/12/30 03:59:42;;;;;;;;;;;;;;;0.19;100.00;100448.75;5596048;31;34073;-81
2021/12/30 04:02:45;;;;;;;;;;;;;;;0.19;100.00;100455.75;5595250;31;33974;-81
2021/12/30 04:05:50;;;;;;;;;;;;;;;0.24;100.00;100462.41;5597277;31;33729;-81
2021/12/30 04:08:55;;;;;;;;;;;;;;;0.27;100.00;100464.88;5595888;31;33931;-81
2021/12/30 04:11:57;;;;;;;;;;;;;;;0.20;100.00;100466.06;5596846;31;33791;-81
2021/12/30 04:15:02;;;;;;;;;;;;;;;0.35;100.00;100474.09;5596265;31;33885;-81
2021/12/30 04:18:07;;;;;;;;;;;;;;;0.38;100.00;100473.94;5597031;31;33462;-83
2021/12/30 04:21:10;;;;;;;;;;;;;;;0.15;100.00;100481.06;5597399;31;33580;-82
2021/12/30 04:24:13;;;;;;;;;;;;;;;0.16;100.00;100480.16;5597299;31;33471;-82
2021/12/30 04:27:18;;;;;;;;;;;;;;;0.15;100.00;100481.06;5595842;31;33492;-81
2021/12/30 04:30:21;;;;;;;;;;;;;;;0.03;100.00;100505.03;5596064;31;33399;-81
2021/12/30 04:33:30;;;;;;;;;;;;;;;-0.05;100.00;100503.59;5595736;31;34429;-83
2021/12/30 04:36:33;;;;;;;;;;;;;;;-0.09;100.00;100496.00;5595177;31;33931;-82
2021/12/30 04:39:35;;;;;;;;;;;;;;;-0.22;100.00;100504.34;5595328;31;33586;-81
2021/12/30 04:42:38;;;;;;;;;;;;;;;-0.13;100.00;100497.87;5595981;31;34050;-81
2021/12/30 04:45:42;;;;;;;;;;;;;;;-0.21;100.00;100502.59;5597275;31;34066;-81
2021/12/30 04:48:46;;;;;;;;;;;;;;;-0.06;100.00;100501.94;5596288;31;33409;-81
2021/12/30 04:51:48;;;;;;;;;;;;;;;-0.20;100.00;100499.91;5597774;31;33950;-81
2021/12/30 04:54:51;;;;;;;;;;;;;;;-0.16;100.00;100511.03;5596122;31;34065;-81
2021/12/30 04:57:53;;;;;;;;;;;;;;;-0.01;100.00;100522.53;5595762;31;34068;-81
2021/12/30 05:00:58;;;;;;;;;;;;;;;-0.28;100.00;100527.19;5595381;31;33664;-81
2021/12/30 05:04:01;;;;;;;;;;;;;;;-0.23;100.00;100531.28;5594869;31;34079;-81
2021/12/30 05:07:04;;;;;;;;;;;;;;;-0.16;100.00;100545.69;5596785;31;33351;-82
2021/12/30 05:10:07;;;;;;;;;;;;;;;-0.18;100.00;100551.88;5595542;31;33563;-81
2021/12/30 05:13:10;;;;;;;;;;;;;;;-0.22;100.00;100563.31;5595718;31;34001;-81
2021/12/30 05:16:15;;;;;;;;;;;;;;;-0.17;100.00;100562.19;5596338;31;33714;-81
2021/12/30 05:19:18;;;;;;;;;;;;;;;-0.10;100.00;100575.78;5595093;31;33714;-81
2021/12/30 05:22:21;;;;;;;;;;;;;;;-0.07;100.00;100583.47;5596154;31;33826;-81
2021/12/30 05:25:28;;;;;;;;;;;;;;;-0.01;100.00;100590.16;5597331;31;34921;-82
2021/12/30 05:28:30;;;;;;;;;;;;;;;-0.07;100.00;100603.41;5595150;31;33733;-81
2021/12/30 05:31:35;;;;;;;;;;;;;;;0.03;100.00;100614.28;5595719;31;33948;-81
2021/12/30 05:34:38;;;;;;;;;;;;;;;-0.06;100.00;100620.72;5596316;31;33671;-81
2021/12/30 05:37:41;;;;;;;;;;;;;;;-0.02;100.00;100611.88;5595349;31;33728;-81
2021/12/30 05:40:44;;;;;;;;;;;;;;;-0.09;100.00;100626.91;5595285;31;33625;-81
2021/12/30 05:43:52;;;;;;;;;;;;;;;-0.05;100.00;100628.44;5595363;31;33932;-81
2021/12/30 05:46:54;;;;;;;;;;;;;;;-0.05;100.00;100627.63;5595508;31;33591;-81
2021/12/30 05:49:57;;;;;;;;;;;;;;;-0.02;100.00;100643.09;5595933;31;34654;-81
2021/12/30 05:53:02;;;;;;;;;;;;;;;0.00;100.00;100641.28;5597406;31;34224;-81
2021/12/30 05:56:05;;;;;;;;;;;;;;;0.01;100.00;100631.72;5596912;31;34293;-81
2021/12/30 05:59:07;;;;;;;;;;;;;;;0.02;100.00;100636.00;5594372;31;34197;-81
2021/12/30 06:02:13;;;;;;;;;;;;;;;0.02;100.00;100629.03;5594955;31;33314;-83
2021/12/30 06:05:21;;;;;;;;;;;;;;;0.13;100.00;100639.00;5596568;31;33359;-82
2021/12/30 06:08:23;;;;;;;;;;;;;;;0.14;100.00;100643.28;5597209;31;33985;-81
2021/12/30 06:11:26;;;;;;;;;;;;;;;0.10;100.00;100652.12;5594887;31;33608;-83
2021/12/30 06:14:29;;;;;;;;;;;;;;;0.19;100.00;100659.53;5595539;31;33537;-82
2021/12/30 06:17:31;;;;;;;;;;;;;;;0.12;100.00;100656.34;5594851;31;33549;-82
2021/12/30 06:20:34;;;;;;;;;;;;;;;0.21;100.00;100659.50;5594771;31;34417;-84
2021/12/30 06:23:37;;;;;;;;;;;;;;;0.15;100.00;100661.44;5595898;31;33589;-82
2021/12/30 06:26:39;;;;;;;;;;;;;;;0.12;100.00;100681.53;5595414;31;33891;-82
2021/12/30 06:29:42;;;;;;;;;;;;;;;0.21;100.00;100675.94;5597836;31;34042;-83
2021/12/30 06:32:44;;;;;;;;;;;;;;;0.13;100.00;100678.84;5600992;31;34283;-83
2021/12/30 06:35:47;;;;;;;;;;;;;;;0.15;100.00;100684.84;5605333;31;33957;-82
2021/12/30 06:38:50;;;;;;;;;;;;;;;0.15;100.00;100686.62;5598748;31;34153;-83
2021/12/30 06:41:56;;;;;;;;;;;;;;;0.17;100.00;100700.38;5597106;31;34370;-81
2021/12/30 06:45:01;;;;;;;;;;;;;;;0.22;100.00;100703.66;5597105;31;33096;-82
2021/12/30 06:48:06;;;;;;;;;;;;;;;0.24;100.00;100707.03;5597346;31;33535;-81
2021/12/30 06:51:09;;;;;;;;;;;;;;;0.08;100.00;100711.19;5596511;31;33706;-81
2021/12/30 06:54:12;;;;;;;;;;;;;;;0.08;100.00;100711.19;5596906;31;33379;-81
2021/12/30 06:57:14;;;;;;;;;;;;;;;0.04;100.00;100722.66;5596781;31;33141;-82
2021/12/30 07:00:17;;;;;;;;;;;;;;;0.09;100.00;100739.75;5596841;31;35269;-83
2021/12/30 07:03:19;;;;;;;;;;;;;;;0.26;100.00;100753.81;5596759;31;34177;-82
2021/12/30 07:06:24;;;;;;;;;;;;;;;0.21;100.00;100759.22;5597787;31;33715;-83
2021/12/30 07:09:30;;;;;;;;;;;;;;;0.21;100.00;100759.22;5596562;31;34145;-83
2021/12/30 07:12:33;;;;;;;;;;;;;;;0.25;100.00;100755.59;5599051;31;33596;-85
2021/12/30 07:15:35;;;;;;;;;;;;;;;0.22;100.00;100747.88;5604209;31;33857;-86
2021/12/30 07:18:38;;;;;;;;;;;;;;;0.35;100.00;100757.78;5599684;31;34197;-82
2021/12/30 07:21:41;;;;;;;;;;;;;;;0.25;100.00;100755.59;5602393;31;34233;-84
2021/12/30 07:24:43;;;;;;;;;;;;;;;0.27;100.00;100753.78;5596548;31;33395;-81
2021/12/30 07:27:47;;;;;;;;;;;;;;;0.30;100.00;100763.19;5598106;31;33523;-81
2021/12/30 07:30:49;;;;;;;;;;;;;;;0.36;100.00;100762.09;5597538;31;34010;-84
2021/12/30 07:33:52;;;;;;;;;;;;;;;0.37;100.00;100769.00;5598621;31;34224;-83
2021/12/30 07:36:54;;;;;;;;;;;;;;;0.37;100.00;100774.19;5597977;31;34303;-82
2021/12/30 07:39:57;;;;;;;;;;;;;;;0.55;100.00;100786.44;5596100;31;34004;-82
2021/12/30 07:43:00;;;;;;;;;;;;;;;0.63;100.00;100791.31;5597644;31;34333;-82
2021/12/30 07:46:02;;;;;;;;;;;;;;;0.60;100.00;100800.13;5598281;31;34497;-84
2021/12/30 07:49:06;;;;;;;;;;;;;;;0.53;100.00;100796.06;5597875;31;33233;-82
2021/12/30 07:52:08;;;;;;;;;;;;;;;0.47;100.00;100785.91;5598175;31;33943;-81
2021/12/30 07:55:13;;;;;;;;;;;;;;;0.55;100.00;100799.44;5597905;31;33880;-81
2021/12/30 07:58:16;;;;;;;;;;;;;;;0.52;100.00;100804.78;5598846;31;33639;-82
2021/12/30 08:01:20;;;;;;;;;;;;;;;0.65;100.00;100801.66;5596835;31;33211;-82
2021/12/30 08:04:23;;;;;;;;;;;;;;;0.59;100.00;100801.03;5598764;31;33863;-81
2021/12/30 08:07:25;;;;;;;;;;;;;;;0.49;100.00;100799.72;5596447;31;34056;-82
2021/12/30 08:10:29;;;;;;;;;;;;;;;0.57;100.00;100802.84;5596371;31;33306;-82
2021/12/30 08:13:32;;;;;;;;;;;;;;;0.60;100.00;100802.72;5597635;31;34077;-82
2021/12/30 08:16:35;;;;;;;;;;;;;;;0.74;100.00;100794.31;5596348;31;33880;-83
2021/12/30 08:19:39;;;;;;;;;;;;;;;0.67;100.00;100818.06;5596276;31;34225;-82
2021/12/30 08:22:41;;;;;;;;;;;;;;;0.70;100.00;100807.53;5595545;31;33443;-81
2021/12/30 08:25:49;;;;;;;;;;;;;;;0.77;100.00;100815.03;5596569;31;34136;-81
2021/12/30 08:28:52;;;;;;;;;;;;;;;0.54;100.00;100807.34;5595848;31;34321;-82
2021/12/30 08:31:56;;;;;;;;;;;;;;;0.66;100.00;100806.81;5597271;31;34189;-83
2021/12/30 08:34:59;;;;;;;;;;;;;;;0.64;100.00;100808.62;5603132;31;33596;-82
2021/12/30 08:38:04;;;;;;;;;;;;;;;0.73;100.00;100817.84;5597055;31;34665;-83
2021/12/30 08:41:06;;;;;;;;;;;;;;;0.98;100.00;100820.22;5595874;31;33842;-82
2021/12/30 08:44:09;;;;;;;;;;;;;;;1.17;100.00;100822.88;5597059;31;34445;-82
2021/12/30 08:47:12;;;;;;;;;;;;;;;1.31;100.00;100818.78;5595689;31;33573;-82
2021/12/30 08:50:16;;;;;;;;;;;;;;;1.35;100.00;100815.97;5594773;31;33068;-83
2021/12/30 08:53:22;;;;;;;;;;;;;;;1.44;100.00;100827.75;5595141;31;34948;-82
2021/12/30 08:56:24;;;;;;;;;;;;;;;1.32;100.00;100833.50;5594870;31;33793;-82
2021/12/30 08:59:27;;;;;;;;;;;;;;;1.38;100.00;100838.47;5597868;31;33789;-83
2021/12/30 09:02:36;;;;;;;;;;;;;;;1.32;100.00;100836.13;5595947;31;34468;-83
2021/12/30 09:05:39;;;;;;;;;;;;;;;1.41;100.00;100835.69;5595438;31;33400;-82
2021/12/30 09:08:42;;;;;;;;;;;;;;;1.48;100.00;100837.13;5595124;31;33162;-81
2021/12/30 09:11:45;;;;;;;;;;;;;;;1.50;100.00;100835.31;5595876;31;33334;-82
2021/12/30 09:14:48;;;;;;;;;;;;;;;1.45;100.00;100831.22;5596000;31;33163;-82
2021/12/30 09:17:51;;;;;;;;;;;;;;;1.56;100.00;100828.09;5599397;31;33815;-83
2021/12/30 09:20:54;;;;;;;;;;;;;;;1.65;100.00;100822.47;5601021;31;34666;-82
2021/12/30 09:23:58;;;;;;;;;;;;;;;1.52;100.00;100825.62;5596025;31;34164;-82
2021/12/30 09:27:01;;;;;;;;;;;;;;;1.73;100.00;100832.53;5596737;31;34045;-82
2021/12/30 09:30:05;;;;;;;;;;;;;;;1.89;100.00;100832.66;5595980;31;33536;-83
2021/12/30 09:33:15;;;;;;;;;;;;;;;1.72;100.00;100834.31;5596775;31;33768;-82
2021/12/30 09:36:18;;;;;;;;;;;;;;;1.80;100.00;100840.03;5595811;31;34450;-82
2021/12/30 09:39:21;;;;;;;;;;;;;;;1.96;100.00;100849.75;5594903;31;33489;-82
2021/12/30 09:42:25;;;;;;;;;;;;;;;1.96;100.00;100857.56;5595433;31;33441;-82
2021/12/30 09:45:33;;;;;;;;;;;;;;;2.05;100.00;100856.28;5595771;31;34160;-82
2021/12/30 09:48:35;;;;;;;;;;;;;;;2.09;100.00;100848.22;5597374;31;33693;-83
2021/12/30 09:51:39;;;;;;;;;;;;;;;1.99;100.00;100847.84;5599613;31;33935;-82
2021/12/30 09:54:42;;;;;;;;;;;;;;;2.12;100.00;100842.88;5595804;31;33630;-82
2021/12/30 09:57:45;;;;;;;;;;;;;;;2.19;100.00;100837.37;5595396;31;32851;-82
2021/12/30 10:00:48;;;;;;;;;;;;;;;2.24;100.00;100843.19;5594589;31;33312;-82
2021/12/30 10:04:00;;;;;;;;;;;;;;;2.29;100.00;100844.66;5596486;31;33898;-83
2021/12/30 10:07:19;;;;;;;;;;;;;;;2.28;100.00;100847.34;5595474;31;33638;-83
2021/12/30 10:10:25;;;;;;;;;;;;;;;2.35;100.00;100848.75;5595342;31;33568;-83
2021/12/30 10:13:30;;;;;;;;;;;;;;;2.43;100.00;100838.75;5595116;31;33582;-83
2021/12/30 10:16:33;;;;;;;;;;;;;;;2.39;100.00;100842.47;5597150;31;33381;-83
2021/12/30 10:19:35;;;;;;;;;;;;;;;2.44;100.00;100845.69;5594860;31;33474;-83
2021/12/30 10:22:38;;;;;;;;;;;;;;;2.61;100.00;100839.63;5594597;31;33948;-83
2021/12/30 10:25:41;;;;;;;;;;;;;;;2.67;100.00;100841.06;5595051;31;34264;-83
2021/12/30 10:28:45;;;;;;;;;;;;;;;2.74;100.00;100845.09;5595823;31;33918;-83
2021/12/30 10:31:50;;;;;;;;;;;;;;;2.78;100.00;100841.38;5594604;31;33775;-83
2021/12/30 10:35:14;;;;;;;;;;;;;;;2.74;100.00;100849.44;5594076;31;33779;-83
2021/12/30 10:38:17;;;;;;;;;;;;;;;2.55;100.00;100846.91;5594568;31;34094;-84
2021/12/30 10:41:25;;;;;;;;;;;;;;;2.47;100.00;100850.75;5594433;31;34643;-83
2021/12/30 10:44:46;;;;;;;;;;;;;;;2.43;100.00;100846.59;5594495;31;33956;-85
2021/12/30 10:47:51;;;;;;;;;;;;;;;2.51;100.00;100842.78;5595341;31;33228;-83
2021/12/30 10:51:31;;;;;;;;;;;;;;;2.45;100.00;100844.75;5594551;31;34715;-83
2021/12/30 10:54:37;;;;;;;;;;;;;;;2.50;100.00;100854.16;5534244;32;33953;-83
2021/12/30 10:57:43;;;;;;;;;;;;;;;2.53;100.00;100849.59;5534078;32;34116;-83
2021/12/30 11:00:45;;;;;;;;;;;;;;;2.66;100.00;100839.38;5534570;32;34705;-83
2021/12/30 11:03:55;;;;;;;;;;;;;;;2.78;100.00;100846.59;5539177;32;33950;-83
2021/12/30 11:06:58;;;;;;;;;;;;;;;2.88;100.00;100840.91;5538229;32;33075;-82
2021/12/30 11:10:00;;;;;;;;;;;;;;;2.96;100.00;100833.53;5533173;32;33825;-83
2021/12/30 11:13:11;;;;;;;;;;;;;;;2.97;100.00;100829.13;5534209;32;33685;-83
2021/12/30 11:16:13;;;;;;;;;;;;;;;2.96;100.00;100822.22;5536382;32;33743;-83
2021/12/30 11:19:17;;;;;;;;;;;;;;;2.93;100.00;100823.22;5536533;32;33331;-83
2021/12/30 11:22:24;;;;;;;;;;;;;;;2.89;100.00;100822.56;5537849;32;33491;-83
2021/12/30 11:25:26;;;;;;;;;;;;;;;3.03;100.00;100819.22;5573270;31;33553;-83
2021/12/30 11:28:29;;;;;;;;;;;;;;;2.68;100.00;100819.25;5596689;31;34255;-82
2021/12/30 11:31:32;;;;;;;;;;;;;;;2.65;100.00;100813.34;5596261;31;33003;-82
2021/12/30 11:34:35;;;;;;;;;;;;;;;2.74;100.00;100808.50;5596889;31;33691;-82
2021/12/30 11:37:38;;;;;;;;;;;;;;;2.86;100.00;100816.66;5597308;31;34067;-82
2021/12/30 11:40:41;;;;;;;;;;;;;;;2.89;100.00;100809.47;5596475;31;33213;-82
2021/12/30 11:43:44;;;;;;;;;;;;;;;2.99;100.00;100809.84;5597323;31;34547;-82
2021/12/30 11:46:51;;;;;;;;;;;;;;;2.83;100.00;100812.41;5602379;31;34043;-82
2021/12/30 11:50:13;;;;;;;;;;;;;;;2.68;100.00;100797.53;5603378;31;35391;-82
2021/12/30 11:53:19;;;;;;;;;;;;;;;2.75;100.00;100797.13;5597169;31;33189;-82
2021/12/30 11:56:22;;;;;;;;;;;;;;;2.57;100.00;100796.31;5597906;31;33703;-84
2021/12/30 11:59:39;;;;;;;;;;;;;;;2.65;100.00;100801.12;5597242;31;33833;-83
2021/12/30 12:02:41;;;;;;;;;;;;;;;2.61;100.00;100797.00;5601362;31;34392;-83
2021/12/30 12:05:49;;;;;;;;;;;;;;;2.65;100.00;100808.12;5599157;31;33338;-83
2021/12/30 12:08:53;;;;;;;;;;;;;;;2.60;100.00;100810.97;5604064;31;34665;-83
2021/12/30 12:11:58;;;;;;;;;;;;;;;2.58;100.00;100797.13;5600667;31;34044;-83
2021/12/30 12:15:03;;;;;;;;;;;;;;;2.61;100.00;100813.50;5602482;31;33952;-82
2021/12/30 12:18:09;;;;;;;;;;;;;;;2.52;100.00;100807.91;5605612;31;33559;-81
2021/12/30 12:21:12;;;;;;;;;;;;;;;2.45;100.00;100829.09;5605349;31;34759;-82
2021/12/30 12:24:31;;;;;;;;;;;;;;;2.54;100.00;100822.56;5597279;31;33801;-84
2021/12/30 12:27:35;;;;;;;;;;;;;;;2.44;100.00;100819.56;5595800;31;34420;-84
2021/12/30 12:30:50;;;;;;;;;;;;;;;2.45;100.00;100823.87;5596446;31;33616;-83
2021/12/30 12:33:59;;;;;;;;;;;;;;;2.42;100.00;100824.00;5596193;31;33229;-84
2021/12/30 12:37:02;;;;;;;;;;;;;;;2.43;100.00;100830.09;5598965;31;34865;-84
2021/12/30 12:40:10;;;;;;;;;;;;;;;2.51;100.00;100837.56;5600079;31;34177;-84
2021/12/30 12:43:14;;;;;;;;;;;;;;;2.42;100.00;100834.44;5598477;31;33423;-84
2021/12/30 12:46:17;;;;;;;;;;;;;;;2.47;100.00;100837.69;5597666;31;33111;-83
2021/12/30 12:49:33;;;;;;;;;;;;;;;2.46;100.00;100833.37;5597247;31;33800;-84
2021/12/30 12:52:48;;;;;;;;;;;;;;;2.47;100.00;100827.25;5595807;31;34917;-83
2021/12/30 12:55:55;;;;;;;;;;;;;;;2.55;100.00;100828.62;5595450;31;33685;-83
2021/12/30 12:59:03;;;;;;;;;;;;;;;2.67;100.00;100825.41;5594873;31;33067;-84
2021/12/30 13:02:06;;;;;;;;;;;;;;;2.78;100.00;100841.38;5595626;31;32198;-83
2021/12/30 13:05:12;;;;;;;;;;;;;;;2.77;100.00;100844.91;5595767;31;33537;-83
2021/12/30 13:08:16;;;;;;;;;;;;;;;2.81;100.00;100844.75;5595471;31;34327;-83
2021/12/30 13:11:29;;;;;;;;;;;;;;;2.70;100.00;100827.88;5595702;31;34128;-83
2021/12/30 13:14:37;;;;;;;;;;;;;;;2.70;100.00;100833.09;5595648;31;34353;-83
2021/12/30 13:17:43;;;;;;;;;;;;;;;2.76;100.00;100853.66;5595711;31;33454;-83
2021/12/30 13:20:48;;;;;;;;;;;;;;;2.69;100.00;100841.84;5596647;31;33580;-83
2021/12/30 13:23:50;;;;;;;;;;;;;;;2.66;100.00;100847.22;5595671;31;33632;-83
2021/12/30 13:26:53;;;;;;;;;;;;;;;2.70;100.00;100853.16;5596790;31;34707;-83
2021/12/30 13:29:57;;;;;;;;;;;;;;;2.74;100.00;100852.06;5599376;31;35766;-83
2021/12/30 13:33:00;;;;;;;;;;;;;;;2.72;100.00;100854.78;5596062;31;34398;-83
2021/12/30 13:36:13;;;;;;;;;;;;;;;2.74;100.00;100846.84;5596514;31;33436;-83
2021/12/30 13:39:17;;;;;;;;;;;;;;;2.71;100.00;100853.06;5594851;31;33295;-83
2021/12/30 13:42:20;;;;;;;;;;;;;;;2.74;100.00;100863.38;5595058;31;34324;-83
2021/12/30 13:45:26;;;;;;;;;;;;;;;2.70;100.00;100863.63;5594907;31;33381;-84
2021/12/30 13:48:34;;;;;;;;;;;;;;;2.74;100.00;100871.22;5598833;31;33923;-82
2021/12/30 13:51:37;;;;;;;;;;;;;;;2.75;100.00;100867.69;5597386;31;33269;-84
2021/12/30 13:54:39;;;;;;;;;;;;;;;2.70;100.00;100869.66;5594785;31;34012;-84
2021/12/30 13:57:45;;;;;;;;;;;;;;;2.71;100.00;100871.37;5594881;31;33384;-83
2021/12/30 14:00:48;;;;;;;;;;;;;;;2.74;100.00;100871.22;5595061;31;33725;-83
2021/12/30 14:04:01;;;;;;;;;;;;;;;2.64;100.00;100880.44;5595332;31;33498;-83
2021/12/30 14:07:03;;;;;;;;;;;;;;;2.68;100.00;100860.22;5596284;31;33791;-83
2021/12/30 14:10:10;;;;;;;;;;;;;;;2.65;100.00;100861.19;5594999;31;34574;-83
2021/12/30 14:13:33;;;;;;;;;;;;;;;2.61;100.00;100870.13;5594827;31;33572;-83
2021/12/30 14:16:46;;;;;;;;;;;;;;;2.63;100.00;100878.75;5596174;31;33088;-83
2021/12/30 14:19:50;;;;;;;;;;;;;;;2.64;100.00;100880.44;5595113;31;33169;-82
2021/12/30 14:23:01;;;;;;;;;;;;;;;2.60;100.00;100871.06;5596471;31;33712;-82
2021/12/30 14:26:11;;;;;;;;;;;;;;;2.67;100.00;100885.50;5596045;31;34615;-82
2021/12/30 14:29:15;;;;;;;;;;;;;;;2.65;100.00;100884.72;5594979;31;34209;-82
2021/12/30 14:32:22;;;;;;;;;;;;;;;2.54;100.00;100885.25;5595325;31;33232;-82
2021/12/30 14:35:26;;;;;;;;;;;;;;;2.62;100.00;100887.50;5596619;31;33858;-82
2021/12/30 14:38:30;;;;;;;;;;;;;;;2.54;100.00;100885.25;5597085;31;33618;-82
2021/12/30 14:41:34;;;;;;;;;;;;;;;2.60;100.00;100884.13;5601836;31;34221;-82
2021/12/30 14:44:38;;;;;;;;;;;;;;;2.62;100.00;100882.28;5594847;31;33359;-82
2021/12/30 14:47:46;;;;;;;;;;;;;;;2.63;100.00;100878.75;5596047;31;34278;-82
2021/12/30 14:50:49;;;;;;;;;;;;;;;2.67;100.00;100872.44;5599448;31;34126;-83
2021/12/30 14:53:51;;;;;;;;;;;;;;;2.67;100.00;100874.22;5596818;31;33354;-82
2021/12/30 14:56:54;;;;;;;;;;;;;;;2.66;100.00;100868.13;5606322;31;34037;-83
2021/12/30 14:59:59;;;;;;;;;;;;;;;2.66;100.00;100878.56;5597502;31;33397;-82
2021/12/30 15:03:01;;;;;;;;;;;;;;;2.70;100.00;100871.44;5596766;31;34566;-82
2021/12/30 15:06:09;;;;;;;;;;;;;;;2.68;100.00;100881.97;5598120;31;33687;-83
2021/12/30 15:09:12;;;;;;;;;;;;;;;2.70;100.00;100877.50;5596690;31;33364;-83
2021/12/30 15:12:18;;;;;;;;;;;;;;;2.68;100.00;100887.19;5596931;31;33208;-82
2021/12/30 15:15:27;;;;;;;;;;;;;;;2.71;100.00;100907.94;5596543;31;33476;-82
2021/12/30 15:18:32;;;;;;;;;;;;;;;2.72;100.00;100895.72;5596323;31;33669;-82
2021/12/30 15:21:34;;;;;;;;;;;;;;;2.73;100.00;100903.50;5596520;31;33925;-84
2021/12/30 15:24:37;;;;;;;;;;;;;;;2.75;100.00;100909.50;5596090;31;33661;-82
2021/12/30 15:27:40;;;;;;;;;;;;;;;2.75;100.00;100912.09;5596473;31;34034;-82
2021/12/30 15:30:43;;;;;;;;;;;;;;;2.78;100.00;100918.94;5596927;31;34232;-82
2021/12/30 15:33:48;;;;;;;;;;;;;;;2.83;100.00;100916.09;5596656;31;33686;-83
2021/12/30 15:36:51;;;;;;;;;;;;;;;2.78;100.00;100919.78;5596363;31;33944;-82
2021/12/30 15:39:54;;;;;;;;;;;;;;;2.82;100.00;100930.09;5597054;31;33409;-82
2021/12/30 15:43:11;;;;;;;;;;;;;;;2.84;100.00;100923.03;5597743;31;33564;-82
2021/12/30 15:46:14;;;;;;;;;;;;;;;2.84;100.00;100907.34;5596904;31;33695;-82
2021/12/30 15:49:18;;;;;;;;;;;;;;;2.85;100.00;100888.13;5596753;31;34224;-81